Aérodrome :
LOGIN :

S'inscrire | Disclaimer

   EN    FR    IT 

 










Légende :    VFR   VFR Marginal   IFR   IFR Intensif   IFR Très Intensif
Visi : 
Plafond : 
>= 8 km
>= 3000ft
5 à 8 km
1000 à 3000 ft
1500m à 5 km
500 à 1000 ft
800 à 1500m
200 à 500 ft
< 800m
< 200 ft
Symboles :   Orages  Brouillard  Fortes neiges  Fortes précipitations  Vent > 20 kt
SIGMETs :   Divers  Orages  Givrage  Turbulence  Onde Orograph.  Cendres Volcan.







- Altitude de l'aérodrome : 1674 ft
- Code IATA : BRN


LSZB - Bern Belp

DERNIER METAR :
  • 102320Z AUTO 34007KT 9999 BKN014 SCT020 BKN025 04/02 Q1024 REDZ

METARs EXPIRÉS :
  • 102250Z AUTO 29005KT 9999 -DZ FEW020 SCT027 BKN032 04/02 Q1024
  • 102220Z AUTO 27007KT 9999 DZ FEW021 BKN026 BKN037 04/02 Q1025
  • 102150Z AUTO VRB02KT 9999 FEW029 BKN034 BKN042 04/02 Q1024
  • 102120Z AUTO 15003KT 9999 SCT025 BKN033 OVC038 04/02 Q1024
  • 102050Z AUTO VRB01KT 9999 FEW029 SCT038 BKN043 04/02 Q1025

TAF TAF LSZB
Valide du 10 à 15h jusqu'au 11 à 00h UTC


101425Z 1015/1024 26008KT 9999 -SHRA SCT018 BKN030 OVC040
PROB40
TEMPO 1015/1024 SHRA
PROB30
TEMPO 1021/1024 4000 SHRASN BKN014
ATIS : +41 22 417 40 76
Pas de NOTAMs connus pour ce terrain.



MET'MAP, la Météo Aéronautique d'un coup d'oeil ! - Copyright ORBIFLY Décembre 2007 - Disclaimer

ORBIFLY MET'MAP TEAM :

Programmation & Développement : Alexandra Zaïnal
Conception & Développement : Baudouin d'Aumeries
Co-Programmation & Développement : Marc-Olivier Méhu
Soutien technique & logistique : Manuel Goepfert

Contact : metmap@orbifly.com




SOURCES & CREDITS :

   NOAA